Time;durP1;ratioP1;P1;durP2;ratioP2;P2;SDS_P1;SDS_P2;PMS_P1;PMS_P2;Temp;Humidity;BMP_temperature;BMP_pressure;BME280_temperature;BME280_humidity;BME280_pressure;Samples;Min_cycle;Max_cycle;Signal;HPM_P1;HPM_P2
2022/04/27 00:00:44;;;;;;;;;;;;;;;18.35;52.73;99475.78;2062488;28;19918;-68
2022/04/27 00:01:44;;;;;;;;;;;;;;;18.35;52.55;99480.41;2062674;28;20483;-68
2022/04/27 00:02:45;;;;;;;;;;;;;;;18.35;52.58;99481.25;2069971;28;19917;-68
2022/04/27 00:03:45;;;;;;;;;;;;;;;18.35;52.68;99472.22;2060737;28;20006;-68
2022/04/27 00:04:45;;;;;;;;;;;;;;;18.34;52.68;99479.50;2061833;28;19979;-68
2022/04/27 00:05:46;;;;;;;;;;;;;;;18.34;52.63;99471.34;2070180;28;19923;-68
2022/04/27 00:06:46;;;;;;;;;;;;;;;18.34;52.64;99479.50;2071870;28;19969;-68
2022/04/27 00:07:46;;;;;;;;;;;;;;;18.34;52.87;99476.78;2071129;28;20257;-67
2022/04/27 00:08:47;;;;;;;;;;;;;;;18.35;52.70;99481.25;2061778;28;20308;-68
2022/04/27 00:09:47;;;;;;;;;;;;;;;18.34;52.70;99471.34;2064145;28;19917;-69
2022/04/27 00:10:47;;;;;;;;;;;;;;;18.34;52.78;99479.50;2063270;28;19924;-69
2022/04/27 00:11:48;;;;;;;;;;;;;;;18.33;52.75;99483.28;2064276;28;19921;-68
2022/04/27 00:12:48;;;;;;;;;;;;;;;18.33;52.88;99483.28;2063116;28;19923;-68
2022/04/27 00:13:48;;;;;;;;;;;;;;;18.33;52.75;99477.81;2063697;28;19951;-68
2022/04/27 00:14:48;;;;;;;;;;;;;;;18.33;52.75;99483.28;2064985;28;19913;-68
2022/04/27 00:15:49;;;;;;;;;;;;;;;18.33;52.70;99483.28;2057773;28;19921;-68
2022/04/27 00:16:49;;;;;;;;;;;;;;;18.34;52.85;99486.84;2056082;28;19917;-68
2022/04/27 00:17:50;;;;;;;;;;;;;;;18.33;52.79;99477.81;2063454;28;19921;-68
2022/04/27 00:18:50;;;;;;;;;;;;;;;18.34;52.92;99484.13;2061389;28;20378;-68
2022/04/27 00:19:50;;;;;;;;;;;;;;;18.34;52.72;99481.41;2062996;28;19925;-68
2022/04/27 00:20:50;;;;;;;;;;;;;;;18.33;52.80;99476.97;2063809;28;19917;-68
2022/04/27 00:21:51;;;;;;;;;;;;;;;18.33;52.97;99477.81;2063892;28;19933;-69
2022/04/27 00:22:51;;;;;;;;;;;;;;;18.33;52.97;99471.50;2060908;28;20522;-68
2022/04/27 00:23:52;;;;;;;;;;;;;;;18.32;52.87;99476.09;2063593;28;19931;-68
2022/04/27 00:24:52;;;;;;;;;;;;;;;18.33;52.83;99476.97;2066864;28;19924;-68
2022/04/27 00:25:52;;;;;;;;;;;;;;;18.32;52.96;99476.09;2064432;28;19922;-68
2022/04/27 00:26:53;;;;;;;;;;;;;;;18.33;52.86;99476.97;2063280;28;19913;-68
2022/04/27 00:27:53;;;;;;;;;;;;;;;18.33;52.88;99474.25;2061986;28;19918;-68
2022/04/27 00:28:53;;;;;;;;;;;;;;;18.32;53.04;99470.63;2063695;28;19963;-69
2022/04/27 00:29:54;;;;;;;;;;;;;;;18.32;52.95;99473.34;2062689;28;19945;-68
2022/04/27 00:30:54;;;;;;;;;;;;;;;18.32;53.04;99469.78;2063444;28;20302;-67
2022/04/27 00:31:54;;;;;;;;;;;;;;;18.31;52.89;99468.94;2056499;28;19933;-68
2022/04/27 00:32:55;;;;;;;;;;;;;;;18.32;52.89;99476.09;2062971;28;19948;-68
2022/04/27 00:33:55;;;;;;;;;;;;;;;18.32;53.06;99469.78;2061033;28;19909;-68
2022/04/27 00:34:55;;;;;;;;;;;;;;;18.32;52.91;99469.78;2059285;28;19906;-68
2022/04/27 00:35:56;;;;;;;;;;;;;;;18.32;53.07;99467.91;2063792;28;19928;-67
2022/04/27 00:36:56;;;;;;;;;;;;;;;18.31;53.02;99463.47;2062381;28;20284;-68
2022/04/27 00:37:56;;;;;;;;;;;;;;;18.31;52.98;99463.47;2057826;28;19968;-68
2022/04/27 00:38:57;;;;;;;;;;;;;;;18.32;53.12;99467.91;2062186;28;19917;-68
2022/04/27 00:39:57;;;;;;;;;;;;;;;18.30;53.02;99464.50;2055775;28;19913;-68
2022/04/27 00:40:57;;;;;;;;;;;;;;;18.31;53.06;99468.94;2062035;28;19921;-68
2022/04/27 00:42:02;;;;;;;;;;;;;;;18.31;53.02;99460.75;2063128;28;19925;-68
2022/04/27 00:43:02;;;;;;;;;;;;;;;18.32;53.14;99461.59;2057528;28;19917;-68
2022/04/27 00:44:02;;;;;;;;;;;;;;;18.31;53.19;99465.34;2058162;28;19917;-68
2022/04/27 00:45:03;;;;;;;;;;;;;;;18.31;53.00;99458.00;2059813;28;19924;-69
2022/04/27 00:46:04;;;;;;;;;;;;;;;18.31;53.08;99451.72;2063899;28;20007;-69
2022/04/27 00:47:04;;;;;;;;;;;;;;;18.31;53.12;99458.00;2060343;28;19914;-69
2022/04/27 00:48:04;;;;;;;;;;;;;;;18.30;53.23;99450.88;2064761;28;20092;-69
2022/04/27 00:49:05;;;;;;;;;;;;;;;18.31;53.19;99458.00;2061491;28;19999;-69
2022/04/27 00:50:05;;;;;;;;;;;;;;;18.30;53.19;99453.59;2055010;28;20368;-68
2022/04/27 00:51:06;;;;;;;;;;;;;;;18.31;53.02;99451.72;2058479;28;20470;-68
2022/04/27 00:52:09;;;;;;;;;;;;;;;18.31;53.26;99447.09;2060764;28;19914;-68
2022/04/27 00:53:09;;;;;;;;;;;;;;;18.31;53.12;99451.72;2063121;28;19932;-68
2022/04/27 00:54:10;;;;;;;;;;;;;;;18.31;53.27;99449.84;2061908;28;19967;-68
2022/04/27 00:55:10;;;;;;;;;;;;;;;18.30;53.16;99445.41;2062005;28;19961;-68
2022/04/27 00:56:11;;;;;;;;;;;;;;;18.30;53.18;99445.41;2063405;28;19917;-69
2022/04/27 00:57:12;;;;;;;;;;;;;;;18.29;53.24;99443.69;2062510;28;20000;-68
2022/04/27 00:58:13;;;;;;;;;;;;;;;18.28;53.08;99439.25;2066317;28;19917;-69
2022/04/27 00:59:14;;;;;;;;;;;;;;;18.28;53.05;99444.69;2064474;28;19941;-69
2022/04/27 01:00:15;;;;;;;;;;;;;;;18.30;53.15;99445.41;2060744;28;19917;-69
2022/04/27 01:01:16;;;;;;;;;;;;;;;18.30;53.26;99439.94;2061650;28;19913;-69
2022/04/27 01:02:16;;;;;;;;;;;;;;;18.28;53.13;99436.53;2061791;28;19919;-69
2022/04/27 01:03:17;;;;;;;;;;;;;;;18.30;53.23;99429.03;2062857;28;19906;-68
2022/04/27 01:04:19;;;;;;;;;;;;;;;18.28;53.11;99433.78;2062947;28;19987;-68
2022/04/27 01:05:21;;;;;;;;;;;;;;;18.28;53.29;99436.53;2061723;28;19930;-67
2022/04/27 01:06:22;;;;;;;;;;;;;;;18.28;53.15;99433.78;2063043;28;19922;-67
2022/04/27 01:07:23;;;;;;;;;;;;;;;18.28;53.18;99425.59;2062827;28;19918;-68
2022/04/27 01:08:23;;;;;;;;;;;;;;;18.29;53.37;99432.75;2061711;28;19968;-67
2022/04/27 01:09:25;;;;;;;;;;;;;;;18.29;53.44;99431.91;2063463;28;20374;-68
2022/04/27 01:10:27;;;;;;;;;;;;;;;18.29;53.38;99426.47;2062470;28;20000;-68
2022/04/27 01:11:27;;;;;;;;;;;;;;;18.28;53.36;99425.59;2063438;28;20451;-67
2022/04/27 01:12:28;;;;;;;;;;;;;;;18.29;53.17;99426.47;2055536;28;20746;-67
2022/04/27 01:13:28;;;;;;;;;;;;;;;18.29;53.26;99423.72;2062083;28;19929;-68
2022/04/27 01:14:39;;;;;;;;;;;;;;;18.28;53.26;99422.88;2063607;28;20316;-68
2022/04/27 01:15:40;;;;;;;;;;;;;;;18.29;53.46;99421.00;2061680;28;19922;-68
2022/04/27 01:16:40;;;;;;;;;;;;;;;18.28;53.52;99422.88;2063032;28;19992;-67
2022/04/27 01:17:40;;;;;;;;;;;;;;;18.29;53.49;99421.00;2062314;28;19991;-68
2022/04/27 01:18:42;;;;;;;;;;;;;;;18.29;53.32;99415.53;2061853;28;19924;-68
2022/04/27 01:19:42;;;;;;;;;;;;;;;18.28;53.50;99422.88;2063076;28;20193;-68
2022/04/27 01:20:44;;;;;;;;;;;;;;;18.28;53.28;99414.69;2061349;28;19914;-68
2022/04/27 01:21:44;;;;;;;;;;;;;;;18.28;53.55;99414.69;2061260;28;20023;-68
2022/04/27 01:22:44;;;;;;;;;;;;;;;18.28;53.21;99420.16;2062998;28;19915;-67
2022/04/27 01:23:45;;;;;;;;;;;;;;;18.28;53.38;99414.69;2060528;28;19925;-68
2022/04/27 01:24:46;;;;;;;;;;;;;;;18.27;53.50;99412.97;2060839;28;20648;-68
2022/04/27 01:25:50;;;;;;;;;;;;;;;18.27;53.25;99418.41;2061311;28;20612;-68
2022/04/27 01:26:52;;;;;;;;;;;;;;;18.27;53.54;99414.84;2064781;28;19917;-67
2022/04/27 01:27:55;;;;;;;;;;;;;;;18.27;53.49;99407.50;2070429;28;19917;-68
2022/04/27 01:28:56;;;;;;;;;;;;;;;18.27;53.53;99412.97;2068484;28;19917;-68
2022/04/27 01:29:56;;;;;;;;;;;;;;;18.25;53.49;99412.28;2069574;28;19919;-68
2022/04/27 01:30:57;;;;;;;;;;;;;;;18.26;53.60;99414.00;2058977;28;19914;-68
2022/04/27 01:32:00;;;;;;;;;;;;;;;18.24;53.80;99413.28;2056816;28;19917;-67
2022/04/27 01:33:06;;;;;;;;;;;;;;;18.26;53.68;99418.59;2060543;28;19979;-68
2022/04/27 01:34:07;;;;;;;;;;;;;;;18.25;53.57;99420.47;2066491;28;20399;-69
2022/04/27 01:35:07;;;;;;;;;;;;;;;18.25;53.62;99423.22;2062840;28;20497;-69
2022/04/27 01:36:08;;;;;;;;;;;;;;;18.25;53.55;99419.59;2062315;28;19910;-69
2022/04/27 01:38:34;;;;;;;;;;;;;;;18.25;53.79;99423.22;2060642;28;19918;-68
2022/04/27 01:39:35;;;;;;;;;;;;;;;18.25;53.86;99423.22;2058038;28;20563;-68
2022/04/27 01:40:36;;;;;;;;;;;;;;;18.24;53.84;99424.22;2059845;28;19956;-68
2022/04/27 01:41:37;;;;;;;;;;;;;;;18.24;53.80;99424.22;2069967;28;19920;-67
2022/04/27 01:42:37;;;;;;;;;;;;;;;18.24;53.84;99426.94;2070388;28;19975;-68
2022/04/27 01:43:37;;;;;;;;;;;;;;;18.24;53.66;99424.22;2059371;28;19921;-68
2022/04/27 01:44:38;;;;;;;;;;;;;;;18.24;53.63;99428.81;2063183;28;19944;-67
2022/04/27 01:45:39;;;;;;;;;;;;;;;18.23;53.87;99427.97;2059507;28;19917;-68
2022/04/27 01:46:39;;;;;;;;;;;;;;;18.23;53.83;99425.22;2058346;28;19940;-68
2022/04/27 01:47:40;;;;;;;;;;;;;;;18.23;53.76;99421.63;2061073;28;19917;-68
2022/04/27 01:48:40;;;;;;;;;;;;;;;18.25;53.86;99425.06;2062466;28;19913;-68
2022/04/27 01:49:40;;;;;;;;;;;;;;;18.23;53.93;99430.69;2059869;28;20539;-68
2022/04/27 01:50:41;;;;;;;;;;;;;;;18.23;53.77;99435.25;2059860;28;19909;-69
2022/04/27 01:54:19;;;;;;;;;;;;;;;18.22;53.82;99426.22;2059528;28;19910;-68
2022/04/27 01:55:19;;;;;;;;;;;;;;;18.23;53.65;99433.41;2059924;28;19922;-69
2022/04/27 01:56:19;;;;;;;;;;;;;;;18.23;53.67;99432.53;2058211;28;19957;-69
2022/04/27 01:57:20;;;;;;;;;;;;;;;18.24;53.78;99440.56;2062294;28;19972;-69
2022/04/27 01:58:20;;;;;;;;;;;;;;;18.23;53.72;99435.25;2059196;28;19917;-68
2022/04/27 01:59:20;;;;;;;;;;;;;;;18.21;53.76;99428.13;2061942;28;19918;-69
2022/04/27 02:00:21;;;;;;;;;;;;;;;18.21;53.89;99430.84;2061448;28;20012;-69
2022/04/27 02:01:21;;;;;;;;;;;;;;;18.23;53.87;99432.53;2061882;28;20007;-67
2022/04/27 02:02:23;;;;;;;;;;;;;;;18.22;53.98;99431.69;2061990;28;19993;-67
2022/04/27 02:03:24;;;;;;;;;;;;;;;18.21;54.06;99430.00;2060878;28;19920;-68
2022/04/27 02:04:24;;;;;;;;;;;;;;;18.21;53.75;99432.72;2062569;28;19959;-68
2022/04/27 02:05:25;;;;;;;;;;;;;;;18.21;53.97;99435.44;2062960;28;20632;-68
2022/04/27 02:06:26;;;;;;;;;;;;;;;18.22;54.01;99434.41;2062664;28;20008;-68
2022/04/27 02:07:26;;;;;;;;;;;;;;;18.21;53.86;99436.28;2055598;28;19936;-69
2022/04/27 02:08:26;;;;;;;;;;;;;;;18.21;54.01;99435.44;2056324;28;19937;-68
2022/04/27 02:09:27;;;;;;;;;;;;;;;18.20;53.98;99440.06;2060096;28;20205;-68
2022/04/27 02:10:27;;;;;;;;;;;;;;;18.21;53.89;99438.16;2060467;28;19956;-68
2022/04/27 02:11:27;;;;;;;;;;;;;;;18.21;53.65;99435.44;2060532;28;19978;-68
2022/04/27 02:12:28;;;;;;;;;;;;;;;18.20;53.77;99437.31;2059120;28;19914;-68
2022/04/27 02:13:28;;;;;;;;;;;;;;;18.21;53.90;99440.91;2069819;28;19921;-69
2022/04/27 02:14:28;;;;;;;;;;;;;;;18.21;53.88;99440.91;2059659;28;19920;-70
2022/04/27 02:15:29;;;;;;;;;;;;;;;18.20;53.78;99434.59;2066943;28;19955;-69
2022/04/27 02:16:29;;;;;;;;;;;;;;;18.21;53.94;99435.44;2064924;28;19918;-68
2022/04/27 02:17:30;;;;;;;;;;;;;;;18.21;53.92;99435.44;2066956;28;19922;-68
2022/04/27 02:18:31;;;;;;;;;;;;;;;18.21;53.95;99440.91;2068671;28;19956;-69
2022/04/27 02:19:31;;;;;;;;;;;;;;;18.21;53.89;99440.91;2067422;28;19917;-69
2022/04/27 02:20:31;;;;;;;;;;;;;;;18.22;53.75;99442.59;2067119;28;19913;-70
2022/04/27 02:21:32;;;;;;;;;;;;;;;18.21;53.92;99440.91;2067372;28;20368;-70
2022/04/27 02:22:34;;;;;;;;;;;;;;;18.22;53.98;99442.59;2068507;28;19914;-70
2022/04/27 02:23:34;;;;;;;;;;;;;;;18.21;53.99;99440.91;2067726;28;20601;-69
2022/04/27 02:24:34;;;;;;;;;;;;;;;18.21;53.82;99440.91;2065397;28;19921;-68
2022/04/27 02:25:35;;;;;;;;;;;;;;;18.21;53.84;99449.09;2067104;28;20341;-69
2022/04/27 02:26:35;;;;;;;;;;;;;;;18.21;53.88;99444.47;2067741;28;19939;-68
2022/04/27 02:27:35;;;;;;;;;;;;;;;18.21;54.00;99446.34;2065867;28;20388;-68
2022/04/27 02:28:36;;;;;;;;;;;;;;;18.22;53.94;99442.59;2068160;28;19953;-68
2022/04/27 02:29:36;;;;;;;;;;;;;;;18.21;53.97;99440.91;2067324;28;19917;-68
2022/04/27 02:30:37;;;;;;;;;;;;;;;18.21;53.95;99446.34;2066533;28;19917;-68
2022/04/27 02:31:37;;;;;;;;;;;;;;;18.20;54.06;99437.31;2073141;28;20518;-68
2022/04/27 02:32:38;;;;;;;;;;;;;;;18.21;54.16;99446.34;2071712;28;20111;-67
2022/04/27 02:33:38;;;;;;;;;;;;;;;18.21;54.08;99440.91;2072723;28;19917;-69
2022/04/27 02:34:39;;;;;;;;;;;;;;;18.20;53.93;99439.16;2066990;28;19964;-69
2022/04/27 02:35:39;;;;;;;;;;;;;;;18.20;54.09;99440.06;2067111;28;20355;-69
2022/04/27 02:36:39;;;;;;;;;;;;;;;18.21;54.03;99438.16;2067220;28;19917;-69
2022/04/27 02:37:40;;;;;;;;;;;;;;;18.21;54.14;99443.63;2074189;28;20351;-69
2022/04/27 02:38:40;;;;;;;;;;;;;;;18.20;54.11;99445.50;2074953;28;19913;-69
2022/04/27 02:39:40;;;;;;;;;;;;;;;18.20;54.11;99439.16;2067138;28;20709;-69
2022/04/27 02:40:41;;;;;;;;;;;;;;;18.20;54.06;99442.78;2071285;28;20751;-69
2022/04/27 02:41:41;;;;;;;;;;;;;;;18.21;54.07;99440.91;2069384;28;19921;-69
2022/04/27 02:42:41;;;;;;;;;;;;;;;18.20;54.19;99445.50;2066995;28;20519;-69
2022/04/27 02:43:42;;;;;;;;;;;;;;;18.20;53.95;99439.16;2068163;28;19966;-67
2022/04/27 02:44:42;;;;;;;;;;;;;;;18.20;54.16;99444.63;2067012;28;20355;-68
2022/04/27 02:45:42;;;;;;;;;;;;;;;18.20;54.25;99439.16;2074325;28;19913;-68
2022/04/27 02:46:43;;;;;;;;;;;;;;;18.19;53.99;99442.94;2074319;28;19951;-69
2022/04/27 02:47:43;;;;;;;;;;;;;;;18.19;54.11;99438.31;2066705;28;20262;-68
2022/04/27 02:51:48;;;;;;;;;;;;;;;18.19;54.29;99438.31;2067000;28;20634;-68
2022/04/27 02:52:41;;;;;;;;;;;;;;;18.18;54.10;99433.91;2065180;28;19918;-69
2022/04/27 02:53:42;;;;;;;;;;;;;;;18.20;54.32;99444.63;2066345;28;20177;-68
2022/04/27 02:54:42;;;;;;;;;;;;;;;18.20;54.23;99436.44;2066858;28;19913;-68
2022/04/27 02:55:43;;;;;;;;;;;;;;;18.19;54.16;99442.94;2066084;28;19963;-68
2022/04/27 02:56:44;;;;;;;;;;;;;;;18.20;54.16;99444.63;2066621;28;19929;-69
2022/04/27 02:57:44;;;;;;;;;;;;;;;18.18;54.26;99442.06;2066517;28;20050;-69
2022/04/27 02:58:44;;;;;;;;;;;;;;;18.19;54.13;99441.06;2067487;28;19929;-69
2022/04/27 02:59:45;;;;;;;;;;;;;;;18.19;54.10;99440.19;2067288;28;20040;-69
2022/04/27 03:00:45;;;;;;;;;;;;;;;18.19;54.11;99443.78;2067587;28;19953;-69
2022/04/27 03:01:45;;;;;;;;;;;;;;;18.19;54.25;99442.94;2065073;28;19917;-70
2022/04/27 03:02:46;;;;;;;;;;;;;;;18.18;54.14;99436.63;2061163;28;19917;-69
2022/04/27 03:03:46;;;;;;;;;;;;;;;18.18;54.23;99435.78;2066684;28;19971;-68
2022/04/27 03:04:46;;;;;;;;;;;;;;;18.19;54.24;99442.94;2063482;28;19914;-68
2022/04/27 03:05:47;;;;;;;;;;;;;;;18.18;54.35;99438.50;2063746;28;19925;-69
2022/04/27 03:06:47;;;;;;;;;;;;;;;18.18;54.21;99441.22;2067268;28;19921;-68
2022/04/27 03:07:47;;;;;;;;;;;;;;;18.19;54.13;99440.19;2066985;28;19975;-68
2022/04/27 03:08:48;;;;;;;;;;;;;;;18.18;54.42;99446.69;2066806;28;19913;-68
2022/04/27 03:09:48;;;;;;;;;;;;;;;18.18;54.36;99441.22;2066817;28;19972;-69
2022/04/27 03:10:48;;;;;;;;;;;;;;;18.17;54.13;99440.34;2066650;28;19957;-68
2022/04/27 03:11:49;;;;;;;;;;;;;;;18.17;54.28;99440.34;2067493;28;20396;-68
2022/04/27 03:12:49;;;;;;;;;;;;;;;18.18;54.21;99435.78;2066374;28;19905;-68
2022/04/27 03:13:50;;;;;;;;;;;;;;;18.18;54.27;99435.78;2066808;28;19917;-69
2022/04/27 03:14:50;;;;;;;;;;;;;;;18.18;54.19;99441.22;2073796;28;20003;-68
2022/04/27 03:15:50;;;;;;;;;;;;;;;18.17;54.37;99440.34;2074754;28;20438;-69
2022/04/27 03:16:54;;;;;;;;;;;;;;;18.18;54.18;99435.78;2073341;28;19952;-68
2022/04/27 03:19:12;;;;;;;;;;;;;;;18.18;54.35;99435.78;2071346;28;19920;-68
2022/04/27 03:20:16;;;;;;;;;;;;;;;18.17;54.37;99436.78;2065476;28;19925;-68
2022/04/27 03:21:16;;;;;;;;;;;;;;;18.17;54.52;99429.44;2067157;28;20064;-68
2022/04/27 03:22:16;;;;;;;;;;;;;;;18.17;54.53;99434.03;2066711;28;19917;-68
2022/04/27 03:23:17;;;;;;;;;;;;;;;18.17;54.27;99436.78;2067746;28;19914;-68
2022/04/27 03:24:18;;;;;;;;;;;;;;;18.17;54.32;99436.78;2066377;28;19909;-68
2022/04/27 03:25:18;;;;;;;;;;;;;;;18.17;54.31;99434.03;2066473;28;19909;-68
2022/04/27 03:26:18;;;;;;;;;;;;;;;18.17;54.60;99434.03;2066840;28;19913;-68
2022/04/27 03:27:18;;;;;;;;;;;;;;;18.17;54.46;99434.03;2066118;28;19922;-68
2022/04/27 03:28:19;;;;;;;;;;;;;;;18.16;54.60;99433.19;2066277;28;19929;-69
2022/04/27 03:29:19;;;;;;;;;;;;;;;18.16;54.40;99432.34;2065143;28;20666;-68
2022/04/27 03:30:20;;;;;;;;;;;;;;;18.16;54.55;99435.06;2067253;28;20884;-69
2022/04/27 03:31:20;;;;;;;;;;;;;;;18.16;54.41;99432.34;2065956;28;19959;-68
2022/04/27 03:32:22;;;;;;;;;;;;;;;18.15;54.36;99430.63;2066899;28;20503;-68
2022/04/27 03:33:23;;;;;;;;;;;;;;;18.15;54.54;99434.22;2065947;28;20545;-68
2022/04/27 03:34:23;;;;;;;;;;;;;;;18.16;54.46;99437.81;2066545;28;19913;-69
2022/04/27 03:35:23;;;;;;;;;;;;;;;18.16;54.46;99438.66;2066782;28;19932;-68
2022/04/27 03:36:24;;;;;;;;;;;;;;;18.15;54.50;99445.13;2066620;28;20297;-70
2022/04/27 03:37:24;;;;;;;;;;;;;;;18.16;54.53;99443.25;2065951;28;19971;-69
2022/04/27 03:38:24;;;;;;;;;;;;;;;18.16;54.53;99444.09;2070615;28;19913;-69
2022/04/27 03:39:25;;;;;;;;;;;;;;;18.16;54.62;99443.25;2067519;28;19905;-69
2022/04/27 03:40:25;;;;;;;;;;;;;;;18.15;54.51;99446.97;2070826;28;19926;-69
2022/04/27 03:41:28;;;;;;;;;;;;;;;18.16;54.37;99454.16;2067091;28;19957;-69
2022/04/27 03:42:28;;;;;;;;;;;;;;;18.15;54.62;99450.59;2066189;28;20216;-69
2022/04/27 03:43:28;;;;;;;;;;;;;;;18.16;54.62;99448.72;2065484;28;19921;-69
2022/04/27 03:44:28;;;;;;;;;;;;;;;18.16;54.63;99448.72;2066533;28;19906;-69
2022/04/27 03:45:29;;;;;;;;;;;;;;;18.15;54.64;99449.72;2057327;28;20620;-69
2022/04/27 03:46:29;;;;;;;;;;;;;;;18.16;54.70;99448.72;2056340;28;19974;-68
2022/04/27 03:47:29;;;;;;;;;;;;;;;18.15;54.62;99450.59;2063664;28;19914;-68
2022/04/27 03:48:30;;;;;;;;;;;;;;;18.16;54.74;99452.28;2066809;28;19944;-68
2022/04/27 03:49:30;;;;;;;;;;;;;;;18.16;54.55;99454.16;2066570;28;19914;-69
2022/04/27 03:50:30;;;;;;;;;;;;;;;18.15;54.64;99452.44;2066500;28;19913;-69
2022/04/27 03:51:30;;;;;;;;;;;;;;;18.15;54.51;99452.44;2066170;28;19976;-70
2022/04/27 03:52:31;;;;;;;;;;;;;;;18.15;54.74;99457.88;2062039;28;19918;-70
2022/04/27 03:53:32;;;;;;;;;;;;;;;18.15;54.56;99460.63;2063660;28;19945;-69
2022/04/27 03:54:32;;;;;;;;;;;;;;;18.14;54.71;99465.22;2071286;28;19919;-70
2022/04/27 03:55:35;;;;;;;;;;;;;;;18.14;54.56;99465.22;2065259;28;20009;-70
2022/04/27 03:56:35;;;;;;;;;;;;;;;18.15;54.66;99463.34;2069888;28;19932;-65
2022/04/27 03:57:37;;;;;;;;;;;;;;;18.13;54.69;99465.41;2071850;28;19922;-65
2022/04/27 03:58:37;;;;;;;;;;;;;;;18.14;54.75;99467.09;2072106;28;20015;-64
2022/04/27 03:59:38;;;;;;;;;;;;;;;18.13;54.61;99466.25;2073150;28;19914;-64
2022/04/27 04:00:38;;;;;;;;;;;;;;;18.15;54.70;99468.81;2072343;28;19964;-63
2022/04/27 04:01:39;;;;;;;;;;;;;;;18.13;54.64;99465.41;2072204;28;20345;-65
2022/04/27 04:02:39;;;;;;;;;;;;;;;18.13;54.60;99465.41;2072503;28;20514;-65
2022/04/27 04:03:39;;;;;;;;;;;;;;;18.13;54.65;99465.41;2072636;28;20331;-65
2022/04/27 04:04:40;;;;;;;;;;;;;;;18.13;54.61;99465.41;2072704;28;19968;-65
2022/04/27 04:05:41;;;;;;;;;;;;;;;18.13;54.64;99473.59;2072670;28;19961;-65
2022/04/27 04:06:42;;;;;;;;;;;;;;;18.13;54.77;99473.59;2072385;28;19924;-64
2022/04/27 04:07:42;;;;;;;;;;;;;;;18.13;54.63;99476.31;2072365;28;19922;-65
2022/04/27 04:08:42;;;;;;;;;;;;;;;18.13;54.77;99470.84;2071675;28;19920;-65
2022/04/27 04:09:43;;;;;;;;;;;;;;;18.14;54.71;99483.47;2072637;28;19913;-65
2022/04/27 04:10:45;;;;;;;;;;;;;;;18.13;54.80;99470.84;2071278;28;19967;-66
2022/04/27 04:11:46;;;;;;;;;;;;;;;18.13;54.77;99476.31;2072316;28;19927;-63
2022/04/27 04:12:46;;;;;;;;;;;;;;;18.13;54.79;99481.78;2072544;28;19921;-64
2022/04/27 04:13:47;;;;;;;;;;;;;;;18.13;54.76;99471.72;2072640;28;19914;-64
2022/04/27 04:14:47;;;;;;;;;;;;;;;18.13;54.85;99476.31;2071870;28;20430;-64
2022/04/27 04:15:49;;;;;;;;;;;;;;;18.13;54.77;99470.84;2072591;28;20391;-65
2022/04/27 04:16:49;;;;;;;;;;;;;;;18.13;54.66;99470.84;2072314;28;19922;-65
2022/04/27 04:17:50;;;;;;;;;;;;;;;18.14;54.80;99472.56;2075921;28;19925;-65
2022/04/27 04:18:50;;;;;;;;;;;;;;;18.13;54.61;99465.41;2072571;28;19918;-64
2022/04/27 04:19:50;;;;;;;;;;;;;;;18.11;54.82;99471.00;2080369;28;19917;-64
2022/04/27 04:20:51;;;;;;;;;;;;;;;18.12;54.82;99469.13;2067949;28;20418;-64
2022/04/27 04:21:51;;;;;;;;;;;;;;;18.12;54.86;99469.13;2063977;28;19914;-64
2022/04/27 04:22:51;;;;;;;;;;;;;;;18.12;54.76;99472.69;2078519;28;19917;-65
2022/04/27 04:23:52;;;;;;;;;;;;;;;18.12;54.71;99471.84;2077513;28;20520;-64
2022/04/27 04:28:49;;;;;;;;;;;;;;;18.11;54.69;99462.81;2072532;28;19918;-65
2022/04/27 04:29:49;;;;;;;;;;;;;;;18.12;54.77;99458.22;2072717;28;19921;-65
2022/04/27 04:30:49;;;;;;;;;;;;;;;18.12;54.94;99458.22;2073529;28;19917;-64
2022/04/27 04:31:50;;;;;;;;;;;;;;;18.11;54.83;99461.97;2073677;28;20360;-63
2022/04/27 04:32:50;;;;;;;;;;;;;;;18.10;54.83;99461.09;2072427;28;19924;-65
2022/04/27 04:33:50;;;;;;;;;;;;;;;18.12;54.75;99469.13;2072386;28;19910;-64
2022/04/27 04:34:51;;;;;;;;;;;;;;;18.10;54.72;99463.81;2072758;28;20304;-64
2022/04/27 04:35:52;;;;;;;;;;;;;;;18.10;54.86;99471.16;2068058;28;19948;-64
2022/04/27 04:36:52;;;;;;;;;;;;;;;18.10;54.80;99472.00;2072119;28;20237;-64
2022/04/27 04:37:53;;;;;;;;;;;;;;;18.10;54.88;99474.72;2075821;28;20052;-64
2022/04/27 04:38:53;;;;;;;;;;;;;;;18.10;54.89;99466.53;2077086;28;19917;-64
2022/04/27 04:39:53;;;;;;;;;;;;;;;18.10;54.95;99468.44;2073550;28;19917;-64
2022/04/27 04:40:54;;;;;;;;;;;;;;;18.11;54.97;99472.88;2074993;28;19921;-64
2022/04/27 04:41:54;;;;;;;;;;;;;;;18.10;54.85;99476.59;2072577;28;19919;-64
2022/04/27 04:42:54;;;;;;;;;;;;;;;18.10;54.77;99471.16;2072059;28;20399;-64
2022/04/27 04:43:55;;;;;;;;;;;;;;;18.10;54.76;99473.88;2072610;28;19921;-64
2022/04/27 04:44:55;;;;;;;;;;;;;;;18.11;54.78;99478.34;2072064;28;19920;-65
2022/04/27 04:45:55;;;;;;;;;;;;;;;18.10;54.84;99482.91;2072540;28;19905;-65
2022/04/27 04:46:55;;;;;;;;;;;;;;;18.11;54.92;99483.78;2071821;28;19960;-65
2022/04/27 04:47:56;;;;;;;;;;;;;;;18.09;54.81;99492.13;2072469;28;19917;-65
2022/04/27 04:48:56;;;;;;;;;;;;;;;18.10;54.85;99495.69;2072022;28;20387;-66
2022/04/27 04:49:56;;;;;;;;;;;;;;;18.09;54.81;99492.13;2072301;28;19928;-65
2022/04/27 04:50:57;;;;;;;;;;;;;;;18.09;54.81;99492.13;2071440;28;19959;-65
2022/04/27 04:51:57;;;;;;;;;;;;;;;18.11;54.95;99494.69;2072067;28;19956;-65
2022/04/27 04:52:57;;;;;;;;;;;;;;;18.10;54.93;99487.50;2073577;28;19913;-65
2022/04/27 04:53:58;;;;;;;;;;;;;;;18.10;55.01;99498.44;2072112;28;20459;-66
2022/04/27 04:54:58;;;;;;;;;;;;;;;18.09;54.96;99494.00;2065608;28;20003;-65
2022/04/27 04:55:58;;;;;;;;;;;;;;;18.10;54.94;99492.97;2068552;28;20012;-64
2022/04/27 04:56:59;;;;;;;;;;;;;;;18.10;55.02;99492.97;2070714;28;20405;-65
2022/04/27 04:57:59;;;;;;;;;;;;;;;18.10;54.95;99493.81;2078554;28;20326;-64
2022/04/27 04:58:59;;;;;;;;;;;;;;;18.10;54.89;99487.50;2065831;28;19917;-64
2022/04/27 05:00:00;;;;;;;;;;;;;;;18.10;55.09;99492.97;2068824;28;19963;-64
2022/04/27 05:01:01;;;;;;;;;;;;;;;18.11;55.13;99498.28;2068666;28;19925;-64
2022/04/27 05:02:02;;;;;;;;;;;;;;;18.10;55.03;99492.97;2067770;28;19917;-64
2022/04/27 05:03:02;;;;;;;;;;;;;;;18.11;55.17;99486.53;2071451;28;19923;-65
2022/04/27 05:04:03;;;;;;;;;;;;;;;18.11;55.21;99494.69;2071567;28;19924;-64
2022/04/27 05:05:03;;;;;;;;;;;;;;;18.10;55.14;99498.44;2064514;28;19952;-64
2022/04/27 05:06:04;;;;;;;;;;;;;;;18.10;55.06;99492.97;2067729;28;20008;-64
2022/04/27 05:07:04;;;;;;;;;;;;;;;18.11;55.30;99491.97;2064418;28;20411;-64
2022/04/27 05:08:06;;;;;;;;;;;;;;;18.10;55.24;99499.28;2066642;28;19941;-63
2022/04/27 05:09:06;;;;;;;;;;;;;;;18.12;55.32;99494.53;2066178;28;19983;-64
2022/04/27 05:10:07;;;;;;;;;;;;;;;18.10;55.34;99502.00;2070726;28;19921;-64
2022/04/27 05:11:08;;;;;;;;;;;;;;;18.11;55.43;99497.44;2069322;28;20271;-63
2022/04/27 05:12:08;;;;;;;;;;;;;;;18.10;55.31;99507.47;2063412;28;19925;-64
2022/04/27 05:13:09;;;;;;;;;;;;;;;18.11;55.26;99500.16;2064582;28;20398;-64
2022/04/27 05:14:09;;;;;;;;;;;;;;;18.11;55.51;99500.16;2066891;28;19964;-64
2022/04/27 05:15:11;;;;;;;;;;;;;;;18.11;55.60;99503.75;2064581;28;19917;-64
2022/04/27 05:16:12;;;;;;;;;;;;;;;18.11;55.75;99495.56;2065869;28;20263;-63
2022/04/27 05:17:12;;;;;;;;;;;;;;;18.12;55.74;99501.84;2064189;28;20491;-63
2022/04/27 05:18:12;;;;;;;;;;;;;;;18.11;55.96;99501.00;2064540;28;20034;-63
2022/04/27 05:19:13;;;;;;;;;;;;;;;18.12;55.78;99499.13;2066568;28;20131;-63
2022/04/27 05:20:13;;;;;;;;;;;;;;;18.11;55.96;99495.56;2065698;28;20007;-63
2022/04/27 05:21:13;;;;;;;;;;;;;;;18.13;55.91;99495.41;2067152;28;20404;-63
2022/04/27 05:22:13;;;;;;;;;;;;;;;18.13;55.91;99507.16;2065994;28;19916;-63
2022/04/27 05:23:14;;;;;;;;;;;;;;;18.13;55.83;99498.13;2067694;28;19940;-64
2022/04/27 05:24:14;;;;;;;;;;;;;;;18.13;55.69;99495.41;2066993;28;20560;-64
2022/04/27 05:25:14;;;;;;;;;;;;;;;18.13;55.77;99506.31;2067300;28;19976;-63
2022/04/27 05:26:16;;;;;;;;;;;;;;;18.13;55.81;99509.03;2067430;28;20221;-64
2022/04/27 05:27:17;;;;;;;;;;;;;;;18.12;56.11;99504.59;2066357;28;19922;-63
2022/04/27 05:28:17;;;;;;;;;;;;;;;18.12;55.85;99512.78;2067136;28;19924;-64